Time;durP1;ratioP1;P1;durP2;ratioP2;P2;SDS_P1;SDS_P2;PMS_P1;PMS_P2;Temp;Humidity;BMP_temperature;BMP_pressure;BME280_temperature;BME280_humidity;BME280_pressure;Samples;Min_cycle;Max_cycle;Signal;HPM_P1;HPM_P2
2021/06/21 00:02:05;;;;;;;4.53;2.30;;;24.50;34.50;;;;;;10377460;28;20233;-77
2021/06/21 00:07:09;;;;;;;5.07;2.20;;;24.60;35.00;;;;;;10381072;28;20225;-77
2021/06/21 00:12:14;;;;;;;5.20;2.60;;;24.50;34.50;;;;;;10382456;28;20233;-77
2021/06/21 00:17:19;;;;;;;5.60;2.10;;;24.40;34.80;;;;;;10380461;28;20252;-77
2021/06/21 00:22:22;;;;;;;5.37;2.90;;;24.30;35.00;;;;;;10384214;28;20233;-76
2021/06/21 00:27:25;;;;;;;4.57;2.33;;;24.20;34.70;;;;;;10376142;28;20241;-76
2021/06/21 00:32:30;;;;;;;5.10;2.67;;;24.10;34.90;;;;;;10378182;28;20232;-77
2021/06/21 00:37:33;;;;;;;4.70;2.23;;;24.10;35.30;;;;;;10378778;28;20241;-77
2021/06/21 00:42:36;;;;;;;5.13;2.20;;;24.10;34.60;;;;;;10380433;28;20225;-76
2021/06/21 00:47:41;;;;;;;3.37;2.03;;;24.00;34.90;;;;;;10381507;28;20432;-77
2021/06/21 00:52:45;;;;;;;6.80;2.43;;;23.90;35.30;;;;;;10373240;28;20269;-77
2021/06/21 00:57:48;;;;;;;6.63;2.10;;;23.90;35.00;;;;;;10381707;28;20236;-77
2021/06/21 01:02:54;;;;;;;2.07;1.73;;;23.80;35.10;;;;;;10377223;28;20233;-77
2021/06/21 01:07:57;;;;;;;4.70;2.10;;;23.60;35.50;;;;;;10375414;28;20591;-77
2021/06/21 01:13:31;;;;;;;4.57;1.77;;;23.60;35.10;;;;;;10380339;28;20225;-77
2021/06/21 01:18:38;;;;;;;5.23;2.10;;;23.50;35.70;;;;;;10379287;28;20229;-77
2021/06/21 01:24:15;;;;;;;4.50;2.10;;;23.50;35.70;;;;;;10387549;28;20722;-77
2021/06/21 01:29:43;;;;;;;5.10;1.83;;;23.40;35.60;;;;;;10387896;28;20233;-77
2021/06/21 01:34:51;;;;;;;4.83;2.07;;;23.40;36.00;;;;;;10383374;28;20245;-77
2021/06/21 01:39:59;;;;;;;4.07;1.70;;;23.30;36.20;;;;;;10385987;28;20719;-77
2021/06/21 01:45:05;;;;;;;3.43;2.03;;;23.20;36.40;;;;;;10386564;28;20236;-77
2021/06/21 01:50:13;;;;;;;5.20;1.77;;;23.10;36.30;;;;;;10389265;28;20910;-76
2021/06/21 01:55:20;;;;;;;6.67;1.93;;;23.00;36.30;;;;;;10385721;28;20554;-77
2021/06/21 02:00:24;;;;;;;3.33;1.63;;;22.90;36.30;;;;;;10390751;28;20309;-77
2021/06/21 02:05:31;;;;;;;6.23;2.07;;;22.90;36.30;;;;;;10386813;28;20237;-77
2021/06/21 02:10:34;;;;;;;3.53;1.60;;;22.90;37.20;;;;;;10393779;28;20218;-77
2021/06/21 02:15:37;;;;;;;5.33;1.90;;;22.80;36.20;;;;;;10386235;28;20241;-77
2021/06/21 02:20:42;;;;;;;3.60;1.90;;;22.80;36.50;;;;;;10384144;28;20234;-77
2021/06/21 02:25:49;;;;;;;4.67;1.60;;;22.70;37.00;;;;;;10385997;28;20580;-77
2021/06/21 02:30:54;;;;;;;3.30;1.80;;;22.60;37.20;;;;;;10390302;28;20222;-77
2021/06/21 02:35:59;;;;;;;4.57;1.97;;;22.50;37.20;;;;;;10391170;28;20241;-77
2021/06/21 02:41:03;;;;;;;3.37;1.70;;;22.30;37.60;;;;;;10382167;28;20362;-77
2021/06/21 02:46:06;;;;;;;4.40;1.77;;;22.20;37.30;;;;;;10389950;28;20241;-77
2021/06/21 02:51:29;;;;;;;5.43;1.67;;;22.10;37.70;;;;;;10389611;28;20226;-77
2021/06/21 02:56:37;;;;;;;4.03;1.70;;;22.00;38.30;;;;;;10379798;28;20716;-77
2021/06/21 03:01:45;;;;;;;2.50;1.40;;;22.10;38.40;;;;;;10382519;28;20475;-77
2021/06/21 03:06:52;;;;;;;4.23;1.53;;;22.10;38.40;;;;;;10386916;28;20336;-77
2021/06/21 03:11:56;;;;;;;3.50;1.60;;;22.20;38.40;;;;;;10387911;28;20233;-77
2021/06/21 03:17:00;;;;;;;5.00;1.90;;;22.20;38.40;;;;;;10381902;28;20237;-77
2021/06/21 03:22:04;;;;;;;3.37;1.50;;;22.10;38.40;;;;;;10376889;28;20382;-77
2021/06/21 03:27:08;;;;;;;7.07;1.70;;;22.00;38.30;;;;;;10380817;28;20237;-77
2021/06/21 03:32:26;;;;;;;4.70;1.80;;;21.90;38.20;;;;;;10380651;28;20237;-77
2021/06/21 03:37:31;;;;;;;2.90;1.50;;;21.80;39.00;;;;;;10385466;28;20644;-77
2021/06/21 03:42:35;;;;;;;3.20;1.80;;;21.70;38.80;;;;;;10379055;28;20226;-77
2021/06/21 03:47:38;;;;;;;3.00;1.87;;;21.70;38.60;;;;;;10380442;28;20229;-77
2021/06/21 03:52:43;;;;;;;3.07;2.10;;;21.70;38.40;;;;;;10382930;28;20268;-77
2021/06/21 03:57:49;;;;;;;3.83;2.00;;;21.70;39.40;;;;;;10386929;28;20230;-77
2021/06/21 04:02:52;;;;;;;4.67;1.90;;;21.70;39.60;;;;;;10383136;28;20242;-77
2021/06/21 04:07:57;;;;;;;5.87;2.17;;;21.80;39.20;;;;;;10384739;28;20232;-77
2021/06/21 04:13:00;;;;;;;4.03;2.13;;;21.80;39.70;;;;;;10383808;28;20240;-77
2021/06/21 04:18:06;;;;;;;4.07;1.80;;;21.80;39.40;;;;;;10389920;28;20229;-77
2021/06/21 04:23:13;;;;;;;4.63;1.90;;;21.80;40.10;;;;;;10383269;28;20234;-77
2021/06/21 04:28:16;;;;;;;6.60;2.03;;;21.80;40.60;;;;;;10380999;28;20230;-76
2021/06/21 04:33:19;;;;;;;4.70;1.87;;;21.80;39.80;;;;;;10387668;28;20246;-78
2021/06/21 04:38:24;;;;;;;7.43;2.63;;;21.90;40.10;;;;;;10393654;28;20242;-78
2021/06/21 04:43:27;;;;;;;5.53;1.97;;;21.90;40.70;;;;;;10394934;28;20725;-78
2021/06/21 04:48:31;;;;;;;6.07;2.10;;;21.90;40.30;;;;;;10404922;28;20736;-76
2021/06/21 04:53:35;;;;;;;5.60;2.43;;;22.00;40.40;;;;;;10395943;28;20226;-77
2021/06/21 04:58:38;;;;;;;6.10;2.40;;;22.00;40.90;;;;;;10408030;28;20229;-77
2021/06/21 05:03:41;;;;;;;6.60;2.07;;;22.10;40.50;;;;;;10404080;28;20714;-77
2021/06/21 05:08:46;;;;;;;7.67;2.30;;;22.20;40.30;;;;;;10402115;28;20301;-77
2021/06/21 05:13:49;;;;;;;4.20;1.70;;;22.30;40.80;;;;;;10405434;28;20235;-77
2021/06/21 05:18:53;;;;;;;8.63;2.30;;;22.30;40.10;;;;;;10400942;28;20610;-77
2021/06/21 05:23:58;;;;;;;6.77;2.00;;;22.30;40.10;;;;;;10402751;28;20234;-77
2021/06/21 05:29:01;;;;;;;6.07;2.10;;;22.40;40.70;;;;;;10402826;28;20222;-77
2021/06/21 05:34:05;;;;;;;3.87;1.93;;;22.40;40.10;;;;;;10406916;28;20695;-77
2021/06/21 05:39:09;;;;;;;4.03;2.07;;;22.50;40.20;;;;;;10399267;28;20602;-79
2021/06/21 05:44:13;;;;;;;4.97;2.03;;;22.60;40.50;;;;;;10400173;28;20229;-76
2021/06/21 05:49:16;;;;;;;5.70;2.17;;;22.70;40.30;;;;;;10398422;28;20221;-77
2021/06/21 05:54:21;;;;;;;5.37;2.00;;;22.80;40.20;;;;;;10400046;28;20229;-72
2021/06/21 05:59:24;;;;;;;7.63;2.60;;;22.90;40.70;;;;;;10401213;28;20612;-76
2021/06/21 06:04:27;;;;;;;4.07;2.10;;;23.00;40.20;;;;;;10384582;28;20602;-76
2021/06/21 06:09:31;;;;;;;5.37;2.10;;;23.20;40.00;;;;;;10387803;28;20240;-76
2021/06/21 06:14:35;;;;;;;4.37;2.00;;;23.30;40.50;;;;;;10389382;28;20248;-76
2021/06/21 06:19:38;;;;;;;5.10;1.70;;;23.40;39.50;;;;;;10399449;28;20591;-77
2021/06/21 06:24:42;;;;;;;3.90;1.50;;;23.60;39.70;;;;;;10396838;28;20225;-77
2021/06/21 06:29:46;;;;;;;4.33;1.87;;;23.70;39.50;;;;;;10409148;28;20247;-77
2021/06/21 06:34:49;;;;;;;3.53;1.80;;;23.90;40.00;;;;;;10408380;28;20252;-77
2021/06/21 06:39:53;;;;;;;5.50;1.90;;;24.10;39.30;;;;;;10398813;28;20227;-76
2021/06/21 06:44:57;;;;;;;4.20;1.67;;;24.20;38.60;;;;;;10394688;28;20241;-74
2021/06/21 06:50:00;;;;;;;6.20;1.70;;;24.40;38.60;;;;;;10385456;28;20230;-74
2021/06/21 07:00:27;;;;;;;2.57;1.57;;;24.70;37.40;;;;;;10383012;28;20254;-74
2021/06/21 07:05:30;;;;;;;3.97;1.70;;;24.80;37.60;;;;;;10388800;28;23022;-74
2021/06/21 07:10:34;;;;;;;5.30;2.00;;;24.90;37.10;;;;;;10383086;28;20604;-73
2021/06/21 07:15:38;;;;;;;3.63;1.97;;;25.00;36.40;;;;;;10380640;28;20226;-73
2021/06/21 07:20:41;;;;;;;5.70;2.10;;;25.10;37.00;;;;;;10381835;28;20229;-73
2021/06/21 07:25:45;;;;;;;4.47;1.93;;;25.30;36.60;;;;;;10382641;28;20760;-73
2021/06/21 07:30:49;;;;;;;3.43;1.63;;;25.40;36.80;;;;;;10385438;28;20460;-73
2021/06/21 07:35:52;;;;;;;5.67;2.20;;;25.50;36.20;;;;;;10383498;28;20599;-73
2021/06/21 07:40:59;;;;;;;4.33;1.90;;;25.60;36.20;;;;;;10380207;28;20258;-73
2021/06/21 07:46:04;;;;;;;6.67;1.73;;;25.60;36.00;;;;;;10387988;28;20603;-74
2021/06/21 07:51:08;;;;;;;5.40;1.70;;;25.70;35.60;;;;;;10378823;28;20233;-73
2021/06/21 07:56:13;;;;;;;5.07;2.13;;;25.80;35.50;;;;;;10378724;28;20237;-74
2021/06/21 08:01:16;;;;;;;4.30;2.23;;;25.90;35.50;;;;;;10381560;28;20233;-76
2021/06/21 08:06:19;;;;;;;4.67;1.80;;;26.00;35.80;;;;;;10380334;28;20237;-76
2021/06/21 08:11:24;;;;;;;5.27;1.97;;;26.20;35.90;;;;;;10381964;28;20345;-73
2021/06/21 08:16:29;;;;;;;5.60;1.83;;;26.40;35.10;;;;;;10382654;28;20242;-73
2021/06/21 08:21:32;;;;;;;5.43;2.10;;;26.60;34.80;;;;;;10385443;28;20233;-74
2021/06/21 08:26:36;;;;;;;4.70;2.07;;;26.70;34.70;;;;;;10380600;28;20729;-77
2021/06/21 08:31:40;;;;;;;7.20;2.00;;;26.80;34.00;;;;;;10385205;28;20228;-77
2021/06/21 08:36:46;;;;;;;3.53;1.70;;;26.90;34.10;;;;;;10389599;28;20257;-77
2021/06/21 08:41:51;;;;;;;4.80;1.80;;;27.10;34.10;;;;;;10396685;28;20229;-77
2021/06/21 08:46:54;;;;;;;3.13;1.70;;;27.30;33.70;;;;;;10395465;28;20226;-74
2021/06/21 08:51:58;;;;;;;3.60;1.67;;;27.50;33.60;;;;;;10393688;28;20229;-74
2021/06/21 08:57:04;;;;;;;4.63;1.70;;;27.70;32.90;;;;;;10386724;28;20606;-77
2021/06/21 09:02:08;;;;;;;4.60;1.43;;;27.80;31.20;;;;;;10386929;28;20233;-76
2021/06/21 09:07:16;;;;;;;5.77;1.77;;;27.90;31.60;;;;;;10386524;28;20234;-82
2021/06/21 09:12:25;;;;;;;4.67;1.80;;;27.90;30.60;;;;;;10402246;28;20236;-77
2021/06/21 09:17:30;;;;;;;4.50;1.83;;;27.90;30.10;;;;;;10390181;28;20649;-77
2021/06/21 09:22:37;;;;;;;4.33;1.77;;;28.00;30.40;;;;;;10390332;28;20241;-78
2021/06/21 09:27:43;;;;;;;3.57;1.77;;;28.10;31.00;;;;;;10391884;28;20717;-77
2021/06/21 09:32:48;;;;;;;5.27;1.77;;;28.20;31.10;;;;;;10387116;28;20237;-77
2021/06/21 09:37:51;;;;;;;4.50;1.70;;;28.40;30.60;;;;;;10386218;28;20304;-77
2021/06/21 09:42:56;;;;;;;5.20;1.83;;;28.50;31.70;;;;;;10387277;28;20226;-77
2021/06/21 09:47:59;;;;;;;3.43;1.70;;;28.70;30.60;;;;;;10391331;28;20308;-78
2021/06/21 09:53:04;;;;;;;2.93;1.77;;;28.90;30.80;;;;;;10385197;28;20233;-78
2021/06/21 09:58:13;;;;;;;5.93;2.00;;;29.00;30.90;;;;;;10388454;28;20734;-77
2021/06/21 10:03:20;;;;;;;4.93;1.83;;;29.20;30.20;;;;;;10386538;28;20246;-77
2021/06/21 10:08:39;;;;;;;3.37;1.50;;;29.30;30.20;;;;;;10392232;28;20250;-76
2021/06/21 10:13:44;;;;;;;5.27;1.60;;;29.50;29.60;;;;;;10386149;28;20230;-77
2021/06/21 10:18:47;;;;;;;5.07;1.67;;;29.60;29.10;;;;;;10388510;28;20218;-76
2021/06/21 10:23:50;;;;;;;5.27;1.53;;;29.70;29.30;;;;;;10390030;28;20230;-77
2021/06/21 10:28:55;;;;;;;2.80;1.40;;;29.80;29.10;;;;;;10391494;28;20222;-77
2021/06/21 10:33:59;;;;;;;3.33;1.60;;;30.00;27.80;;;;;;10386906;28;20230;-77
2021/06/21 10:39:14;;;;;;;1.67;1.43;;;30.10;28.10;;;;;;10382207;28;21062;-78
2021/06/21 10:44:37;;;;;;;3.37;1.40;;;30.20;28.10;;;;;;10377494;28;20230;-77
2021/06/21 10:49:40;;;;;;;3.17;1.40;;;30.40;27.80;;;;;;10384087;28;20310;-76
2021/06/21 10:54:43;;;;;;;2.97;1.50;;;30.50;27.90;;;;;;10381956;28;20230;-77
2021/06/21 11:00:15;;;;;;;3.10;1.40;;;30.60;27.50;;;;;;10378696;28;20225;-77
2021/06/21 11:05:33;;;;;;;4.37;1.90;;;30.70;27.60;;;;;;10378835;28;20289;-76
2021/06/21 11:10:36;;;;;;;2.30;1.37;;;30.80;27.00;;;;;;10376588;28;20585;-77
2021/06/21 11:15:41;;;;;;;3.27;1.40;;;30.80;26.70;;;;;;10377956;28;20234;-77
2021/06/21 11:20:45;;;;;;;3.27;1.40;;;30.70;25.70;;;;;;10375374;28;20233;-73
2021/06/21 11:25:50;;;;;;;3.47;1.50;;;30.70;26.70;;;;;;10383183;28;20308;-74
2021/06/21 11:31:24;;;;;;;1.73;1.27;;;30.80;26.00;;;;;;10385022;28;20226;-74
2021/06/21 11:36:46;;;;;;;2.53;1.73;;;30.80;26.30;;;;;;10376008;28;20240;-74
2021/06/21 11:41:54;;;;;;;3.73;1.40;;;30.90;26.70;;;;;;10369022;28;20233;-73
2021/06/21 11:46:59;;;;;;;3.17;1.60;;;31.00;26.30;;;;;;10373719;28;20466;-74
2021/06/21 11:52:05;;;;;;;2.67;1.40;;;31.10;26.00;;;;;;10371966;28;20256;-74
2021/06/21 11:57:09;;;;;;;3.07;1.57;;;31.20;26.10;;;;;;10389076;28;20598;-84
2021/06/21 12:02:16;;;;;;;3.87;1.60;;;31.30;25.70;;;;;;10384716;28;20316;-76
2021/06/21 12:07:30;;;;;;;2.77;1.60;;;31.30;25.20;;;;;;10390384;28;20296;-77
2021/06/21 12:12:35;;;;;;;3.50;1.53;;;31.30;25.40;;;;;;10384107;28;20245;-82
2021/06/21 12:17:40;;;;;;;3.20;1.80;;;31.20;25.70;;;;;;10388968;28;20284;-74
2021/06/21 12:22:56;;;;;;;2.13;1.40;;;31.40;25.40;;;;;;10401381;28;20869;-79
2021/06/21 12:28:12;;;;;;;3.93;1.60;;;31.50;24.60;;;;;;10393724;28;20232;-78
2021/06/21 12:33:32;;;;;;;3.50;1.40;;;31.50;24.70;;;;;;10385060;28;20234;-77
2021/06/21 12:38:36;;;;;;;3.57;1.33;;;31.50;23.70;;;;;;10382010;28;20233;-78
2021/06/21 12:43:39;;;;;;;5.33;1.77;;;31.50;24.40;;;;;;10378001;28;20226;-78
2021/06/21 12:48:44;;;;;;;3.03;1.50;;;31.50;24.50;;;;;;10386695;28;20645;-77
2021/06/21 12:53:52;;;;;;;2.83;1.37;;;31.50;24.10;;;;;;10382442;28;20229;-74
2021/06/21 12:58:58;;;;;;;3.90;1.80;;;31.50;23.00;;;;;;10384975;28;20232;-74
2021/06/21 13:04:18;;;;;;;3.63;1.57;;;31.60;23.60;;;;;;10375128;28;20240;-74
2021/06/21 13:09:21;;;;;;;3.37;1.60;;;31.70;23.50;;;;;;10380607;28;20237;-74
2021/06/21 13:14:30;;;;;;;2.83;1.83;;;31.80;23.50;;;;;;10383820;28;20236;-74
2021/06/21 13:19:43;;;;;;;4.80;1.70;;;31.80;22.20;;;;;;10385477;28;20324;-75
2021/06/21 13:24:47;;;;;;;4.17;1.90;;;31.80;21.70;;;;;;10392075;28;20597;-74
2021/06/21 13:29:51;;;;;;;3.50;1.73;;;31.70;22.80;;;;;;10386039;28;20237;-74
2021/06/21 13:34:58;;;;;;;3.47;1.97;;;31.80;22.70;;;;;;10385626;28;20241;-74
2021/06/21 13:40:10;;;;;;;2.80;1.40;;;31.80;21.70;;;;;;10384881;28;20230;-74
2021/06/21 13:45:21;;;;;;;6.23;2.20;;;31.80;22.00;;;;;;10383796;28;20237;-74
2021/06/21 13:50:29;;;;;;;2.50;1.70;;;31.90;22.10;;;;;;10385795;28;20237;-75
2021/06/21 13:55:42;;;;;;;3.77;1.43;;;32.00;21.90;;;;;;10388754;28;20242;-76
2021/06/21 14:00:49;;;;;;;5.50;1.50;;;32.00;22.10;;;;;;10385309;28;20623;-76
2021/06/21 14:05:55;;;;;;;2.47;1.60;;;32.10;22.10;;;;;;10374947;28;20234;-76
2021/06/21 14:11:03;;;;;;;2.80;1.50;;;32.10;21.30;;;;;;10386310;28;20218;-76
2021/06/21 14:16:07;;;;;;;4.50;1.60;;;32.20;21.00;;;;;;10376922;28;20230;-76
2021/06/21 14:21:12;;;;;;;3.33;1.73;;;32.20;21.70;;;;;;10394809;28;20568;-76
2021/06/21 14:26:17;;;;;;;3.57;1.80;;;32.20;20.90;;;;;;10392220;28;20233;-75
2021/06/21 14:31:20;;;;;;;2.97;1.50;;;32.10;21.40;;;;;;10375128;28;20318;-75
2021/06/21 14:36:25;;;;;;;5.63;1.70;;;32.20;21.30;;;;;;10383252;28;20252;-75
2021/06/21 14:41:28;;;;;;;5.80;2.03;;;32.00;20.90;;;;;;10393877;28;20762;-75
2021/06/21 14:46:32;;;;;;;6.27;1.97;;;32.00;21.10;;;;;;10391520;28;20509;-76
2021/06/21 14:51:37;;;;;;;5.27;2.00;;;32.10;20.60;;;;;;10394381;28;20317;-82
2021/06/21 14:56:40;;;;;;;3.57;1.80;;;32.20;20.60;;;;;;10384139;28;20226;-83
2021/06/21 15:01:43;;;;;;;3.00;1.70;;;32.20;20.90;;;;;;10385159;28;20725;-83
2021/06/21 15:06:48;;;;;;;3.13;1.67;;;32.30;21.00;;;;;;10388129;28;20706;-83
2021/06/21 15:11:51;;;;;;;4.33;2.23;;;32.30;20.70;;;;;;10388377;28;20218;-82
2021/06/21 15:16:54;;;;;;;6.97;3.43;;;32.30;20.70;;;;;;10391752;28;20238;-75
2021/06/21 15:21:59;;;;;;;4.73;2.80;;;32.20;20.50;;;;;;10393054;28;20772;-75
2021/06/21 15:27:02;;;;;;;5.47;2.40;;;32.20;19.50;;;;;;10392835;28;20221;-76
2021/06/21 15:32:06;;;;;;;5.63;2.27;;;32.20;19.50;;;;;;10394170;28;20233;-75
2021/06/21 15:37:12;;;;;;;2.93;1.70;;;32.20;19.80;;;;;;10392779;28;20224;-76
2021/06/21 15:42:15;;;;;;;3.90;1.77;;;32.30;19.60;;;;;;10384580;28;20264;-75
2021/06/21 15:47:18;;;;;;;6.73;2.00;;;32.30;19.90;;;;;;10388269;28;20232;-75
2021/06/21 15:52:23;;;;;;;4.23;2.00;;;32.40;20.00;;;;;;10380576;28;20715;-78
2021/06/21 15:57:27;;;;;;;5.07;1.87;;;32.40;19.10;;;;;;10382845;28;20237;-78
2021/06/21 16:02:30;;;;;;;4.20;1.80;;;32.50;19.50;;;;;;10376785;28;20234;-79
2021/06/21 16:07:35;;;;;;;3.47;1.67;;;32.60;19.60;;;;;;10380785;28;20656;-82
2021/06/21 16:12:38;;;;;;;4.67;1.83;;;32.70;19.10;;;;;;10384316;28;20248;-74
2021/06/21 16:17:41;;;;;;;3.97;1.93;;;32.80;19.50;;;;;;10384404;28;20225;-74
2021/06/21 16:22:46;;;;;;;5.07;1.60;;;32.90;19.20;;;;;;10382855;28;20229;-74
2021/06/21 16:27:49;;;;;;;4.20;1.90;;;32.90;18.90;;;;;;10378423;28;20222;-74
2021/06/21 16:32:53;;;;;;;4.67;1.63;;;32.80;19.40;;;;;;10381109;28;20301;-74
2021/06/21 16:37:59;;;;;;;6.13;1.87;;;32.80;19.30;;;;;;10390395;28;20594;-75
2021/06/21 16:43:02;;;;;;;4.23;1.73;;;32.80;19.10;;;;;;10387688;28;20230;-76
2021/06/21 16:48:06;;;;;;;3.50;1.73;;;32.80;19.60;;;;;;10383237;28;20236;-76
2021/06/21 16:53:11;;;;;;;2.60;1.63;;;32.70;19.40;;;;;;10382641;28;20233;-76
2021/06/21 16:58:14;;;;;;;3.97;1.93;;;32.80;19.50;;;;;;10399670;28;20318;-78
2021/06/21 17:03:18;;;;;;;3.70;1.80;;;32.60;19.80;;;;;;10390874;28;20729;-76
2021/06/21 17:08:23;;;;;;;5.43;2.00;;;32.50;20.00;;;;;;10387175;28;20362;-71
2021/06/21 17:13:26;;;;;;;6.60;2.23;;;32.50;20.00;;;;;;10395608;28;20237;-76
2021/06/21 17:18:30;;;;;;;4.50;1.93;;;32.40;19.90;;;;;;10372130;28;20256;-81
2021/06/21 17:23:35;;;;;;;5.13;1.90;;;32.40;19.90;;;;;;10394027;28;20261;-75
2021/06/21 17:28:39;;;;;;;5.23;1.70;;;32.40;19.90;;;;;;10380426;28;20241;-78
2021/06/21 17:33:44;;;;;;;5.77;1.40;;;32.30;20.20;;;;;;10388466;28;20226;-76
2021/06/21 17:38:48;;;;;;;3.40;1.87;;;32.20;20.30;;;;;;10395914;28;20907;-83
2021/06/21 17:43:52;;;;;;;5.13;1.60;;;32.10;20.60;;;;;;10385053;28;20237;-74
2021/06/21 17:48:55;;;;;;;1.83;1.60;;;32.00;21.40;;;;;;10381696;28;20825;-81
2021/06/21 17:53:59;;;;;;;2.70;1.60;;;31.90;21.00;;;;;;10380997;28;20710;-81
2021/06/21 17:59:04;;;;;;;4.23;1.77;;;31.80;21.20;;;;;;10385750;28;20225;-82
2021/06/21 18:04:07;;;;;;;5.43;1.60;;;31.70;21.40;;;;;;10391335;28;20356;-80
2021/06/21 18:09:12;;;;;;;3.77;1.40;;;31.60;21.60;;;;;;10384674;28;20598;-78
2021/06/21 18:14:15;;;;;;;23.53;13.83;;;31.50;21.90;;;;;;10383530;28;20237;-75
2021/06/21 18:19:18;;;;;;;11.27;4.50;;;31.40;21.80;;;;;;10384719;28;20226;-75
2021/06/21 18:24:23;;;;;;;7.27;2.30;;;31.30;21.80;;;;;;10391597;28;20248;-80
2021/06/21 18:29:26;;;;;;;4.17;1.90;;;31.10;21.70;;;;;;10389059;28;20234;-80
2021/06/21 18:34:29;;;;;;;3.23;1.60;;;31.10;21.70;;;;;;10392666;28;20273;-79
2021/06/21 18:39:35;;;;;;;3.73;1.70;;;31.00;21.60;;;;;;10373230;28;21273;-81
2021/06/21 18:44:38;;;;;;;4.40;1.53;;;30.90;22.20;;;;;;10404405;28;20237;-81
2021/06/21 18:49:42;;;;;;;2.50;1.70;;;30.80;22.30;;;;;;10400565;28;20911;-78
2021/06/21 18:54:46;;;;;;;4.30;1.50;;;30.70;22.50;;;;;;10385545;28;20233;-77
2021/06/21 18:59:50;;;;;;;2.87;1.70;;;30.60;22.80;;;;;;10384654;28;20245;-77
2021/06/21 19:04:54;;;;;;;3.30;1.73;;;30.40;22.70;;;;;;10393480;28;20313;-78
2021/06/21 19:10:09;;;;;;;5.07;1.87;;;30.20;22.80;;;;;;10391032;28;20888;-78
2021/06/21 19:15:14;;;;;;;8.03;2.20;;;30.00;23.70;;;;;;10394381;28;20648;-79
2021/06/21 19:20:19;;;;;;;6.20;2.33;;;29.70;24.10;;;;;;10395825;28;20244;-79
2021/06/21 19:25:28;;;;;;;8.27;2.67;;;29.40;25.30;;;;;;10382636;28;20835;-80
2021/06/21 19:30:32;;;;;;;10.30;3.40;;;29.00;26.30;;;;;;10389515;28;20226;-79
2021/06/21 19:36:13;;;;;;;9.23;3.00;;;28.40;26.60;;;;;;10380441;28;20304;-81
2021/06/21 19:41:59;;;;;;;7.30;2.70;;;28.00;27.20;;;;;;10325824;28;20316;-79
2021/06/21 19:47:05;;;;;;;5.10;2.80;;;27.40;28.10;;;;;;10362361;28;20230;-79
2021/06/21 19:52:08;;;;;;;8.00;2.50;;;27.20;27.90;;;;;;10377148;28;20237;-78
2021/06/21 19:57:22;;;;;;;4.70;2.30;;;27.00;28.10;;;;;;10381567;28;20733;-75
2021/06/21 20:02:25;;;;;;;4.10;2.23;;;26.80;29.60;;;;;;10390189;28;20245;-84
2021/06/21 20:07:29;;;;;;;2.83;2.03;;;26.60;28.60;;;;;;10390528;28;20602;-84
2021/06/21 20:12:33;;;;;;;3.87;2.30;;;26.30;28.90;;;;;;10390001;28;20250;-84
2021/06/21 20:17:37;;;;;;;3.13;2.10;;;26.10;29.80;;;;;;10396287;28;20229;-84
2021/06/21 20:22:45;;;;;;;4.37;2.20;;;26.00;29.20;;;;;;10396848;28;20234;-76
2021/06/21 20:28:09;;;;;;;6.10;2.20;;;25.90;29.70;;;;;;10402009;28;20304;-76
2021/06/21 20:33:17;;;;;;;5.77;2.33;;;25.80;31.90;;;;;;10344973;28;20350;-75
2021/06/21 20:38:46;;;;;;;3.27;2.13;;;25.70;30.30;;;;;;10371572;28;21097;-80
2021/06/21 20:44:28;;;;;;;3.00;1.80;;;25.50;32.80;;;;;;10390925;28;20284;-84
2021/06/21 20:55:50;;;;;;;2.57;1.70;;;25.40;33.30;;;;;;10152222;29;20690;-80
2021/06/21 21:00:53;;;;;;;2.77;1.50;;;25.10;31.90;;;;;;10355309;28;23638;-80
2021/06/21 21:05:58;;;;;;;3.70;1.90;;;25.00;31.30;;;;;;10409614;28;20337;-80
2021/06/21 21:11:02;;;;;;;4.13;1.87;;;24.90;32.00;;;;;;10414657;28;20570;-80
2021/06/21 21:16:06;;;;;;;2.67;1.80;;;24.80;32.60;;;;;;10413227;28;20228;-79
2021/06/21 21:21:09;;;;;;;2.33;1.80;;;24.70;32.30;;;;;;10410673;28;20252;-79
2021/06/21 21:26:14;;;;;;;3.70;1.90;;;24.60;32.60;;;;;;10412724;28;20236;-80
2021/06/21 21:31:17;;;;;;;3.33;1.77;;;24.60;33.80;;;;;;10423476;28;20226;-79
2021/06/21 21:36:20;;;;;;;4.50;1.80;;;24.50;33.20;;;;;;10405869;28;20823;-79
2021/06/21 21:41:25;;;;;;;3.40;1.43;;;24.30;33.40;;;;;;10400174;28;20234;-79
2021/06/21 21:46:28;;;;;;;6.73;1.70;;;24.20;34.10;;;;;;10398590;28;20237;-77
2021/06/21 21:51:32;;;;;;;7.37;2.00;;;23.80;34.00;;;;;;10396384;28;20238;-84
2021/06/21 21:56:36;;;;;;;5.00;1.83;;;23.40;35.30;;;;;;10401463;28;20230;-75
2021/06/21 22:01:44;;;;;;;4.10;1.90;;;23.10;36.60;;;;;;10403476;28;20222;-83
2021/06/21 22:06:48;;;;;;;3.93;1.80;;;22.80;38.30;;;;;;10402916;28;20225;-79
2021/06/21 22:11:53;;;;;;;4.10;1.90;;;22.70;36.90;;;;;;10393253;28;20253;-80
2021/06/21 22:16:56;;;;;;;3.97;2.00;;;22.70;38.30;;;;;;10401951;28;20862;-80
2021/06/21 22:21:59;;;;;;;2.03;1.73;;;22.70;37.10;;;;;;10401291;28;20225;-79
2021/06/21 22:27:05;;;;;;;2.07;1.40;;;22.70;37.20;;;;;;10403597;28;20225;-79
2021/06/21 22:32:09;;;;;;;2.13;1.60;;;22.70;38.90;;;;;;10400165;28;20233;-79
2021/06/21 22:37:12;;;;;;;2.60;1.97;;;22.80;37.70;;;;;;10400884;28;20227;-79
2021/06/21 22:42:17;;;;;;;2.47;1.40;;;22.80;37.40;;;;;;10400220;28;20241;-79
2021/06/21 22:47:20;;;;;;;2.13;1.30;;;22.70;38.50;;;;;;10396650;28;20257;-79
2021/06/21 22:52:23;;;;;;;1.73;1.53;;;22.70;37.10;;;;;;10399010;28;20702;-79
2021/06/21 22:57:28;;;;;;;2.33;1.27;;;22.60;37.40;;;;;;10403521;28;20244;-80
2021/06/21 23:02:31;;;;;;;1.33;1.23;;;22.60;37.80;;;;;;10399187;28;20247;-80
2021/06/21 23:07:34;;;;;;;1.47;1.13;;;22.40;37.00;;;;;;10404964;28;20229;-80
2021/06/21 23:12:39;;;;;;;4.37;1.40;;;22.40;37.10;;;;;;10403721;28;20223;-80
2021/06/21 23:17:43;;;;;;;2.80;1.10;;;22.30;38.10;;;;;;10409335;28;20621;-81
2021/06/21 23:22:46;;;;;;;3.13;1.20;;;22.30;37.40;;;;;;10402173;28;20238;-81
2021/06/21 23:27:52;;;;;;;2.80;1.30;;;22.20;37.10;;;;;;10397873;28;21065;-81
2021/06/21 23:32:56;;;;;;;2.10;1.23;;;22.20;38.40;;;;;;10402306;28;20233;-81
2021/06/21 23:38:03;;;;;;;1.70;1.20;;;22.20;37.50;;;;;;10407113;28;20225;-81
2021/06/21 23:43:08;;;;;;;2.00;1.10;;;22.20;38.40;;;;;;10384605;28;20218;-81
2021/06/21 23:48:11;;;;;;;1.10;0.90;;;22.20;38.40;;;;;;10389675;28;20226;-81
2021/06/21 23:53:15;;;;;;;1.30;1.10;;;22.20;37.80;;;;;;10381083;28;20248;-81
2021/06/21 23:58:19;;;;;;;1.57;1.20;;;22.20;37.90;;;;;;10387520;28;20221;-80
